createdAt,value
2018-11-26T00:00:36.480Z,58.97
2018-11-26T00:05:35.047Z,54.27
2018-11-26T00:10:51.203Z,50.67
2018-11-26T00:15:49.836Z,56.70
2018-11-26T00:20:49.555Z,57.67
2018-11-26T00:25:48.162Z,56.03
2018-11-26T00:30:46.835Z,71.53
2018-11-26T00:35:45.465Z,56.20
2018-11-26T00:40:44.160Z,65.40
2018-11-26T00:45:42.764Z,54.30
2018-11-26T00:50:41.459Z,51.17
2018-11-26T00:55:40.060Z,65.10
2018-11-26T01:00:38.763Z,66.83
2018-11-26T01:05:38.690Z,76.10
2018-11-26T01:10:37.496Z,65.87
2018-11-26T01:15:36.118Z,64.97
2018-11-26T01:20:34.750Z,66.50
2018-11-26T01:25:33.475Z,65.53
2018-11-26T01:30:32.255Z,64.33
2018-11-26T01:35:30.908Z,62.17
2018-11-26T01:40:34.939Z,55.53
2018-11-26T01:45:34.226Z,48.33
2018-11-26T01:50:32.834Z,58.13
2018-11-26T01:55:36.659Z,66.43
2018-11-26T02:00:35.481Z,57.20
2018-11-26T02:05:34.082Z,58.73
2018-11-26T02:10:32.691Z,52.20
2018-11-26T02:15:36.001Z,64.47
2018-11-26T02:20:34.773Z,55.30
2018-11-26T02:25:33.412Z,56.37
2018-11-26T02:30:32.076Z,66.63
2018-11-26T02:35:30.692Z,61.43
2018-11-26T02:40:30.213Z,53.43
2018-11-26T02:45:29.324Z,53.33
2018-11-26T02:50:27.951Z,53.90
2018-11-26T02:55:26.610Z,55.10
2018-11-26T03:00:25.308Z,54.07
2018-11-26T03:05:25.688Z,61.90
2018-11-26T03:10:24.338Z,53.00
2018-11-26T03:15:23.052Z,43.57
2018-11-26T03:20:21.756Z,51.80
2018-11-26T03:25:20.376Z,66.60
2018-11-26T03:30:21.136Z,60.00
2018-11-26T03:35:19.767Z,51.47
2018-11-26T03:40:18.534Z,52.37
2018-11-26T03:45:18.237Z,64.40
2018-11-26T03:50:16.936Z,42.90
2018-11-26T03:55:15.555Z,48.73
2018-11-26T04:00:15.187Z,45.53
2018-11-26T04:05:13.803Z,45.17
2018-11-26T04:10:13.206Z,47.67
2018-11-26T04:15:14.060Z,47.30
2018-11-26T04:20:12.689Z,52.40
2018-11-26T04:25:11.329Z,44.13
2018-11-26T04:30:11.414Z,44.17
2018-11-26T04:35:10.301Z,52.43
2018-11-26T04:40:10.160Z,48.83
2018-11-26T04:45:09.872Z,52.43
2018-11-26T04:50:10.704Z,54.47
2018-11-26T04:55:10.400Z,41.47
2018-11-26T05:00:13.417Z,52.50
2018-11-26T05:05:12.869Z,59.50
2018-11-26T05:10:12.676Z,55.33
2018-11-26T05:15:12.294Z,47.40
2018-11-26T05:20:11.977Z,48.10
2018-11-26T05:25:11.159Z,45.40
2018-11-26T05:30:10.980Z,48.60
2018-11-26T05:35:10.493Z,56.50
2018-11-26T05:40:11.241Z,54.43
2018-11-26T05:45:12.094Z,46.10
2018-11-26T05:50:12.535Z,46.70
2018-11-26T05:55:12.270Z,48.93
2018-11-26T06:00:14.563Z,44.27
2018-11-26T06:05:13.159Z,50.27
2018-11-26T06:10:11.827Z,48.37
2018-11-26T06:15:12.609Z,55.03
2018-11-26T06:20:12.238Z,48.67
2018-11-26T06:25:13.385Z,61.70
2018-11-26T06:30:15.171Z,47.93
2018-11-26T06:35:15.068Z,56.93
2018-11-26T06:40:14.040Z,57.23
2018-11-26T06:45:13.932Z,62.27
2018-11-26T06:50:13.768Z,65.60
2018-11-26T06:55:14.375Z,64.47
2018-11-26T07:00:15.232Z,63.40
2018-11-26T07:05:18.848Z,60.63
2018-11-26T07:10:18.342Z,67.27
2018-11-26T07:15:18.302Z,58.07
2018-11-26T07:20:20.036Z,58.40
2018-11-26T07:25:19.998Z,61.27
2018-11-26T07:30:19.808Z,53.80
2018-11-26T07:35:18.433Z,56.87
2018-11-26T07:40:18.185Z,67.10
2018-11-26T07:45:19.826Z,67.40
2018-11-26T07:50:20.871Z,59.70
2018-11-26T07:55:20.547Z,59.30
2018-11-26T08:00:22.542Z,69.17
2018-11-26T08:05:22.836Z,62.40
2018-11-26T08:10:23.076Z,70.47
2018-11-26T08:15:24.776Z,71.17
2018-11-26T08:20:23.485Z,66.50
2018-11-26T08:25:23.072Z,59.47
2018-11-26T08:30:25.052Z,62.07
2018-11-26T08:35:23.679Z,50.17
2018-11-26T08:40:26.048Z,77.03
2018-11-26T08:45:30.065Z,70.77
2018-11-26T08:50:28.678Z,60.93
2018-11-26T08:55:29.443Z,57.73
2018-11-26T09:00:31.397Z,61.47
2018-11-26T09:05:40.528Z,48.33
2018-11-26T09:10:39.384Z,53.53
2018-11-26T09:15:38.053Z,76.37
2018-11-26T09:20:36.899Z,49.73
2018-11-26T09:25:35.541Z,48.47
2018-11-26T09:30:34.195Z,57.93
2018-11-26T09:35:34.778Z,45.20
2018-11-26T09:40:35.045Z,45.60
2018-11-26T09:45:40.086Z,47.17
2018-11-26T09:50:32.554Z,52.93
2018-11-26T09:55:31.173Z,38.87
2018-11-26T10:00:29.848Z,38.10
2018-11-26T10:05:28.472Z,42.40
2018-11-26T10:10:27.171Z,42.63
2018-11-26T10:15:26.669Z,46.07
2018-11-26T10:20:25.292Z,38.57
2018-11-26T10:25:23.944Z,43.40
2018-11-26T10:30:23.586Z,38.13
2018-11-26T10:35:22.496Z,35.30
2018-11-26T10:40:22.924Z,33.63
2018-11-26T10:50:26.679Z,34.50
2018-11-26T10:55:29.291Z,38.87
2018-11-26T11:00:33.427Z,49.63
2018-11-26T11:05:32.116Z,32.53
2018-11-26T11:10:32.704Z,34.87
2018-11-26T11:15:31.300Z,31.90
2018-11-26T11:20:30.153Z,35.53
2018-11-26T11:25:28.821Z,31.43
2018-11-26T11:30:28.706Z,32.63
2018-11-26T11:35:27.346Z,30.53
2018-11-26T11:40:27.126Z,29.83
2018-11-26T11:45:26.480Z,31.30
2018-11-26T11:50:25.158Z,34.27
2018-11-26T11:55:24.893Z,34.13
2018-11-26T12:00:32.864Z,32.90
2018-11-26T12:05:31.587Z,31.07
2018-11-26T12:10:30.230Z,34.77
2018-11-26T12:15:28.869Z,29.50
2018-11-26T12:20:28.353Z,31.77
2018-11-26T12:25:27.178Z,30.43
2018-11-26T12:30:27.284Z,32.77
2018-11-26T12:35:25.944Z,44.33
2018-11-26T12:40:25.495Z,35.30
2018-11-26T12:45:25.455Z,40.43
2018-11-26T12:50:25.146Z,41.70
2018-11-26T12:55:25.425Z,40.53
2018-11-26T13:00:28.162Z,44.67
2018-11-26T13:05:26.853Z,41.13
2018-11-26T13:10:25.882Z,33.93
2018-11-26T13:15:25.761Z,43.33
2018-11-26T13:20:27.910Z,37.73
2018-11-26T13:25:28.557Z,50.10
2018-11-26T13:30:29.330Z,42.47
2018-11-26T13:35:27.970Z,43.53
2018-11-26T13:40:27.816Z,52.87
2018-11-26T13:45:28.558Z,43.33
2018-11-26T13:50:28.928Z,37.47
2018-11-26T13:55:27.718Z,43.03
2018-11-26T14:00:26.463Z,38.00
2018-11-26T14:05:25.070Z,47.67
2018-11-26T14:10:24.945Z,43.30
2018-11-26T14:15:23.586Z,36.07
2018-11-26T14:20:22.333Z,39.80
2018-11-26T14:25:24.338Z,41.27
2018-11-26T14:30:24.790Z,43.40
2018-11-26T14:35:23.454Z,46.57
2018-11-26T14:40:27.621Z,40.80
2018-11-26T14:45:26.256Z,40.57
2018-11-26T14:50:24.926Z,35.87
2018-11-26T14:55:27.666Z,39.20
2018-11-26T15:00:26.342Z,36.67
2018-11-26T15:05:24.985Z,40.97
2018-11-26T15:10:24.518Z,35.40
2018-11-26T15:15:26.485Z,33.10
2018-11-26T15:20:27.051Z,42.45
2018-11-26T15:25:28.772Z,36.87
2018-11-26T15:30:27.390Z,38.57
2018-11-26T15:35:26.070Z,42.37
2018-11-26T15:40:24.736Z,43.57
2018-11-26T15:45:24.649Z,41.90
2018-11-26T15:50:23.351Z,34.57
2018-11-26T15:55:22.348Z,41.40
2018-11-26T16:00:22.179Z,39.00
2018-11-26T16:05:23.132Z,36.07
2018-11-26T16:10:21.771Z,45.47
2018-11-26T16:15:24.029Z,41.23
2018-11-26T16:20:24.797Z,39.07
2018-11-26T16:25:24.117Z,31.90
2018-11-26T16:30:22.775Z,33.77
2018-11-26T16:35:22.859Z,42.83
2018-11-26T16:40:21.711Z,33.63
2018-11-26T16:45:22.593Z,32.87
2018-11-26T16:50:22.678Z,32.70
2018-11-26T16:55:21.381Z,32.80
2018-11-26T17:00:22.348Z,32.63
2018-11-26T17:05:24.401Z,29.00
2018-11-26T17:10:23.034Z,34.50
2018-11-26T17:15:21.760Z,36.80
2018-11-26T17:20:20.426Z,32.97
2018-11-26T17:25:19.090Z,32.13
2018-11-26T17:30:20.177Z,34.83
2018-11-26T17:35:18.792Z,32.97
2018-11-26T17:40:19.945Z,29.83
2018-11-26T17:45:19.312Z,24.90
2018-11-26T17:50:37.833Z,23.23
2018-11-26T17:55:44.386Z,33.80
2018-11-26T18:00:44.467Z,25.13
2018-11-26T18:05:43.262Z,28.80
2018-11-26T18:10:41.989Z,30.00
2018-11-26T18:15:41.134Z,24.40
2018-11-26T18:20:41.193Z,29.37
2018-11-26T18:25:41.112Z,25.17
2018-11-26T18:30:42.029Z,30.10
2018-11-26T18:35:41.266Z,23.07
2018-11-26T18:40:41.266Z,20.10
2018-11-26T18:45:40.597Z,21.80
2018-11-26T18:50:39.615Z,25.87
2018-11-26T18:55:39.360Z,20.87
2018-11-26T19:00:40.903Z,25.63
2018-11-26T19:05:39.550Z,20.50
2018-11-26T19:10:38.256Z,23.63
2018-11-26T19:15:38.264Z,30.63
2018-11-26T19:20:36.887Z,23.70
2018-11-26T19:25:36.939Z,26.53
2018-11-26T19:31:38.534Z,22.33
2018-11-26T19:36:38.007Z,21.53
2018-11-26T19:41:37.172Z,24.00
2018-11-26T19:46:35.844Z,25.83
2018-11-26T19:51:34.505Z,28.57
2018-11-26T19:56:33.129Z,29.10
2018-11-26T20:01:31.836Z,21.70
2018-11-26T20:06:30.577Z,22.10
2018-11-26T20:11:33.147Z,23.10
2018-11-26T20:16:46.193Z,30.97
2018-11-26T20:21:45.175Z,31.27
2018-11-26T20:26:43.815Z,26.37
2018-11-26T20:31:42.497Z,28.13
2018-11-26T20:36:41.470Z,26.43
2018-11-26T20:41:40.139Z,25.00
2018-11-26T20:46:38.773Z,30.70
2018-11-26T20:51:37.459Z,33.73
2018-11-26T20:56:37.276Z,36.27
2018-11-26T21:01:45.857Z,34.63
2018-11-26T21:06:44.467Z,34.20
2018-11-26T21:11:43.141Z,34.77
2018-11-26T21:16:41.822Z,35.50
2018-11-26T21:21:40.466Z,43.73
2018-11-26T21:26:39.142Z,33.37
2018-11-26T21:31:37.799Z,34.67
2018-11-26T21:36:36.455Z,39.57
2018-11-26T21:41:35.168Z,32.33
2018-11-26T21:46:33.774Z,46.27
2018-11-26T21:51:33.418Z,31.23
2018-11-26T21:56:31.090Z,42.03
2018-11-26T22:01:29.837Z,40.33
2018-11-26T22:06:28.542Z,30.93
2018-11-26T22:11:30.318Z,49.07
2018-11-26T22:16:26.019Z,40.10
2018-11-26T22:21:24.702Z,40.73
2018-11-26T22:26:23.357Z,37.27
2018-11-26T22:31:22.094Z,41.77
2018-11-26T22:36:20.740Z,34.20
2018-11-26T22:41:19.381Z,37.93
2018-11-26T22:46:18.011Z,37.20
2018-11-26T22:51:16.728Z,42.30
2018-11-26T22:56:15.389Z,35.60
2018-11-26T23:01:14.088Z,32.43
2018-11-26T23:06:12.942Z,35.60
2018-11-26T23:11:11.402Z,34.47
2018-11-26T23:16:10.066Z,37.30
2018-11-26T23:21:08.802Z,31.40
2018-11-26T23:26:07.401Z,35.97
2018-11-26T23:31:06.450Z,36.80
2018-11-26T23:36:05.091Z,44.23
2018-11-26T23:41:03.810Z,34.67
2018-11-26T23:46:02.434Z,31.60
2018-11-26T23:51:01.121Z,31.10
2018-11-26T23:55:59.737Z,30.63
